createdAt,value
2022-11-29T00:01:37.735Z,8.14
2022-11-29T00:04:06.053Z,7.69
2022-11-29T00:06:34.667Z,7.35
2022-11-29T00:09:06.492Z,7.08
2022-11-29T00:11:55.579Z,6.84
2022-11-29T00:14:24.081Z,6.61
2022-11-29T00:16:53.957Z,6.42
2022-11-29T00:19:22.320Z,6.27
2022-11-29T00:21:50.088Z,6.44
2022-11-29T00:24:17.974Z,7.85
2022-11-29T00:26:46.018Z,9.39
2022-11-29T00:29:14.256Z,9.99
2022-11-29T00:31:42.351Z,9.24
2022-11-29T00:34:12.079Z,8.40
2022-11-29T00:36:40.519Z,7.79
2022-11-29T00:39:11.623Z,7.34
2022-11-29T00:41:39.810Z,7.00
2022-11-29T00:44:08.016Z,6.72
2022-11-29T00:46:36.057Z,6.47
2022-11-29T00:49:04.817Z,6.46
2022-11-29T00:51:32.887Z,7.74
2022-11-29T00:54:00.713Z,9.34
2022-11-29T00:56:28.476Z,10.27
2022-11-29T00:58:56.238Z,9.70
2022-11-29T01:01:24.146Z,8.84
2022-11-29T01:03:52.011Z,8.19
2022-11-29T01:06:19.947Z,7.70
2022-11-29T01:08:48.188Z,7.30
2022-11-29T01:11:21.645Z,6.96
2022-11-29T01:13:50.120Z,6.68
2022-11-29T01:16:18.079Z,6.44
2022-11-29T01:18:45.971Z,6.54
2022-11-29T01:21:16.137Z,7.89
2022-11-29T01:23:45.726Z,9.51
2022-11-29T01:26:16.212Z,10.31
2022-11-29T01:28:46.645Z,9.64
2022-11-29T01:31:26.552Z,8.75
2022-11-29T01:33:55.616Z,8.06
2022-11-29T01:36:24.063Z,7.61
2022-11-29T01:38:52.203Z,7.26
2022-11-29T01:41:23.097Z,6.96
2022-11-29T01:43:54.792Z,6.70
2022-11-29T01:46:22.721Z,6.45
2022-11-29T01:48:52.240Z,6.46
2022-11-29T01:51:20.231Z,7.85
2022-11-29T01:53:48.227Z,9.45
2022-11-29T01:56:16.308Z,10.20
2022-11-29T01:58:45.033Z,9.53
2022-11-29T02:01:13.240Z,8.67
2022-11-29T02:03:41.146Z,8.02
2022-11-29T02:06:09.216Z,7.51
2022-11-29T02:08:40.133Z,7.09
2022-11-29T02:11:17.346Z,6.76
2022-11-29T02:13:52.930Z,6.45
2022-11-29T02:16:58.001Z,6.24
2022-11-29T02:19:44.583Z,6.69
2022-11-29T02:22:20.163Z,8.63
2022-11-29T02:25:30.003Z,9.62
2022-11-29T02:28:19.043Z,8.82
2022-11-29T02:31:03.775Z,7.97
2022-11-29T02:33:53.027Z,7.37
2022-11-29T02:36:45.487Z,6.87
2022-11-29T02:39:51.344Z,6.46
2022-11-29T02:42:56.240Z,6.15
2022-11-29T02:45:53.971Z,6.55
2022-11-29T02:48:30.849Z,8.58
2022-11-29T02:51:23.086Z,9.59
2022-11-29T02:53:57.332Z,8.78
2022-11-29T02:56:32.792Z,7.90
2022-11-29T02:59:12.996Z,7.31
2022-11-29T03:01:57.077Z,6.91
2022-11-29T03:04:33.002Z,6.59
2022-11-29T03:07:35.939Z,6.36
2022-11-29T03:10:25.421Z,6.18
2022-11-29T03:12:53.942Z,6.48
2022-11-29T03:15:44.019Z,8.12
2022-11-29T03:18:35.393Z,9.82
2022-11-29T03:21:42.711Z,9.78
2022-11-29T03:24:40.255Z,8.53
2022-11-29T03:27:13.143Z,7.69
2022-11-29T03:29:49.614Z,7.23
2022-11-29T03:32:35.487Z,6.82
2022-11-29T03:35:25.972Z,6.46
2022-11-29T03:38:29.367Z,6.16
2022-11-29T03:41:09.423Z,6.51
2022-11-29T03:43:48.238Z,8.47
2022-11-29T03:46:26.620Z,9.64
2022-11-29T03:48:59.653Z,8.94
2022-11-29T03:51:52.094Z,8.06
2022-11-29T03:54:25.830Z,7.36
2022-11-29T03:56:54.274Z,6.95
2022-11-29T03:59:34.410Z,6.66
2022-11-29T04:02:21.178Z,6.38
2022-11-29T04:05:27.117Z,6.18
2022-11-29T04:08:26.260Z,6.70
2022-11-29T04:11:12.108Z,8.61
2022-11-29T04:14:10.909Z,9.50
2022-11-29T04:17:00.481Z,8.74
2022-11-29T04:19:44.757Z,7.89
2022-11-29T04:22:18.617Z,7.32
2022-11-29T04:25:08.372Z,6.95
2022-11-29T04:27:49.355Z,6.62
2022-11-29T04:30:26.525Z,6.37
2022-11-29T04:33:03.466Z,6.52
2022-11-29T04:35:40.434Z,8.08
2022-11-29T04:38:36.282Z,9.58
2022-11-29T04:41:20.170Z,10.14
2022-11-29T04:43:53.129Z,9.22
2022-11-29T04:46:43.800Z,8.40
2022-11-29T04:49:42.737Z,7.74
2022-11-29T04:52:32.320Z,7.28
2022-11-29T04:55:23.740Z,6.94
2022-11-29T04:58:07.292Z,6.67
2022-11-29T05:00:42.506Z,6.45
2022-11-29T05:03:17.428Z,6.25
2022-11-29T05:06:16.026Z,6.08
2022-11-29T05:08:49.231Z,6.52
2022-11-29T05:11:30.008Z,8.38
2022-11-29T05:14:25.524Z,10.11
2022-11-29T05:17:50.941Z,10.40
2022-11-29T05:20:28.499Z,9.09
2022-11-29T05:23:22.686Z,8.34
2022-11-29T05:26:01.816Z,7.77
2022-11-29T05:28:33.529Z,7.38
2022-11-29T05:31:46.491Z,7.07
2022-11-29T05:34:30.268Z,6.75
2022-11-29T05:37:29.461Z,6.55
2022-11-29T05:40:22.188Z,6.34
2022-11-29T05:42:55.887Z,6.60
2022-11-29T05:45:52.732Z,8.30
2022-11-29T05:48:45.441Z,9.66
2022-11-29T05:51:21.827Z,8.97
2022-11-29T05:53:58.980Z,8.17
2022-11-29T05:56:51.403Z,7.59
2022-11-29T05:59:23.274Z,7.15
2022-11-29T06:02:09.257Z,6.85
2022-11-29T06:04:46.736Z,6.54
2022-11-29T06:07:32.929Z,6.78
2022-11-29T06:10:05.850Z,8.54
2022-11-29T06:12:37.792Z,9.59
2022-11-29T06:15:27.992Z,9.05
2022-11-29T06:18:39.848Z,8.17
2022-11-29T06:21:28.875Z,7.48
2022-11-29T06:24:09.298Z,7.07
2022-11-29T06:27:07.730Z,6.81
2022-11-29T06:30:03.396Z,6.59
2022-11-29T06:32:40.753Z,6.41
2022-11-29T06:35:39.834Z,6.60
2022-11-29T06:38:28.324Z,8.65
2022-11-29T06:41:01.797Z,10.37
2022-11-29T06:43:31.006Z,10.71
2022-11-29T06:46:11.307Z,9.84
2022-11-29T06:48:47.347Z,8.91
2022-11-29T06:51:29.641Z,8.23
2022-11-29T06:54:15.052Z,7.71
2022-11-29T06:57:05.770Z,7.32
2022-11-29T06:59:50.886Z,7.02
2022-11-29T07:02:38.759Z,6.78
2022-11-29T07:05:21.941Z,6.59
2022-11-29T07:07:50.906Z,6.45
2022-11-29T07:10:20.042Z,6.66
2022-11-29T07:12:50.050Z,8.29
2022-11-29T07:15:20.699Z,9.85
2022-11-29T07:17:57.594Z,10.44
2022-11-29T07:20:40.874Z,9.67
2022-11-29T07:23:46.604Z,8.81
2022-11-29T07:26:21.840Z,8.09
2022-11-29T07:29:17.845Z,7.65
2022-11-29T07:31:50.842Z,7.34
2022-11-29T07:34:40.472Z,7.14
2022-11-29T07:37:37.643Z,6.94
2022-11-29T07:40:30.907Z,6.76
2022-11-29T07:43:17.716Z,7.24
2022-11-29T07:45:45.981Z,9.14
2022-11-29T07:48:13.950Z,10.01
2022-11-29T07:50:41.803Z,9.50
2022-11-29T07:53:16.229Z,8.76
2022-11-29T07:55:44.037Z,8.19
2022-11-29T07:58:12.956Z,7.80
2022-11-29T08:00:42.176Z,7.52
2022-11-29T08:03:10.818Z,7.32
2022-11-29T08:05:39.276Z,7.16
2022-11-29T08:08:07.147Z,7.04
2022-11-29T08:10:35.671Z,6.90
2022-11-29T08:13:03.797Z,7.14
2022-11-29T08:15:31.593Z,8.70
2022-11-29T08:17:59.315Z,10.23
2022-11-29T08:20:26.984Z,10.75
2022-11-29T08:22:59.305Z,10.08
2022-11-29T08:25:28.110Z,9.39
2022-11-29T08:27:56.112Z,8.91
2022-11-29T08:30:24.164Z,8.56
2022-11-29T08:32:52.224Z,8.25
2022-11-29T08:35:22.090Z,8.02
2022-11-29T08:37:50.181Z,7.82
2022-11-29T08:40:18.287Z,7.61
2022-11-29T08:42:46.033Z,7.47
2022-11-29T08:45:13.999Z,7.36
2022-11-29T08:47:42.911Z,7.28
2022-11-29T08:50:18.206Z,7.21
2022-11-29T08:53:06.515Z,7.47
2022-11-29T08:55:36.875Z,9.28
2022-11-29T08:58:07.288Z,10.73
2022-11-29T09:00:35.192Z,11.28
2022-11-29T09:03:24.065Z,10.65
2022-11-29T09:05:52.441Z,9.88
2022-11-29T09:08:20.617Z,9.41
2022-11-29T09:10:48.917Z,9.07
2022-11-29T09:13:18.128Z,8.79
2022-11-29T09:15:45.968Z,8.55
2022-11-29T09:18:13.807Z,8.39
2022-11-29T09:20:44.004Z,8.25
2022-11-29T09:23:13.145Z,8.13
2022-11-29T09:25:40.857Z,8.03
2022-11-29T09:28:08.676Z,7.94
2022-11-29T09:30:38.007Z,7.86
2022-11-29T09:33:05.891Z,7.81
2022-11-29T09:35:34.758Z,7.75
2022-11-29T09:38:02.528Z,7.74
2022-11-29T09:40:54.297Z,7.71
2022-11-29T09:43:32.341Z,7.69
2022-11-29T09:46:08.291Z,7.66
2022-11-29T09:48:46.779Z,8.09
2022-11-29T09:51:31.845Z,9.91
2022-11-29T09:54:24.141Z,11.11
2022-11-29T09:56:52.901Z,10.57
2022-11-29T09:59:25.590Z,10.00
2022-11-29T10:02:01.506Z,9.60
2022-11-29T10:04:32.502Z,9.34
2022-11-29T10:07:19.488Z,9.16
2022-11-29T10:09:56.813Z,9.02
2022-11-29T10:12:32.039Z,8.93
2022-11-29T10:15:09.117Z,8.83
2022-11-29T10:17:54.527Z,8.77
2022-11-29T10:20:25.491Z,8.73
2022-11-29T10:22:57.476Z,8.70
2022-11-29T10:25:30.402Z,8.70
2022-11-29T10:27:58.389Z,8.69
2022-11-29T10:30:26.212Z,8.64
2022-11-29T10:32:59.146Z,8.57
2022-11-29T10:35:27.301Z,8.58
2022-11-29T10:38:29.144Z,8.59
2022-11-29T10:40:47.735Z,8.62
2022-11-29T10:43:15.560Z,8.68
2022-11-29T10:45:50.461Z,8.73
2022-11-29T10:48:34.263Z,8.72
2022-11-29T10:51:02.390Z,8.70
2022-11-29T10:53:37.288Z,8.64
2022-11-29T10:56:22.319Z,8.58
2022-11-29T10:58:54.726Z,8.55
2022-11-29T11:01:23.205Z,8.56
2022-11-29T11:03:53.421Z,8.60
2022-11-29T11:06:48.960Z,8.63
2022-11-29T11:09:16.644Z,8.68
2022-11-29T11:11:52.130Z,8.74
2022-11-29T11:14:29.127Z,8.80
2022-11-29T11:17:08.370Z,8.87
2022-11-29T11:19:36.177Z,8.92
2022-11-29T11:22:04.363Z,8.93
2022-11-29T11:24:34.325Z,8.93
2022-11-29T11:27:02.433Z,8.90
2022-11-29T11:29:38.149Z,8.90
2022-11-29T11:32:15.089Z,8.94
2022-11-29T11:34:52.216Z,9.01
2022-11-29T11:37:27.084Z,9.02
2022-11-29T11:40:00.515Z,9.03
2022-11-29T11:42:38.990Z,9.06
2022-11-29T11:45:13.126Z,9.11
2022-11-29T11:47:48.103Z,9.15
2022-11-29T11:50:25.279Z,9.17
2022-11-29T11:52:58.343Z,9.22
2022-11-29T11:55:42.547Z,9.26
2022-11-29T11:58:13.301Z,9.29
2022-11-29T12:01:08.660Z,9.33
2022-11-29T12:03:54.253Z,9.46
2022-11-29T12:06:29.487Z,9.60
2022-11-29T12:09:37.730Z,9.74
2022-11-29T12:12:15.357Z,9.90
2022-11-29T12:15:07.611Z,10.03
2022-11-29T12:17:44.383Z,10.19
2022-11-29T12:20:42.368Z,10.43
2022-11-29T12:23:13.180Z,10.78
2022-11-29T12:25:58.241Z,11.04
2022-11-29T12:28:32.106Z,11.11
2022-11-29T12:31:11.737Z,11.04
2022-11-29T12:33:58.467Z,10.96
2022-11-29T12:36:48.697Z,10.86
2022-11-29T12:39:40.083Z,10.77
2022-11-29T12:42:23.763Z,10.60
2022-11-29T12:45:02.414Z,10.46
2022-11-29T12:47:52.089Z,10.30
2022-11-29T12:50:43.507Z,10.15
2022-11-29T12:53:27.628Z,9.98
2022-11-29T12:56:17.748Z,9.82
2022-11-29T12:59:09.496Z,9.66
2022-11-29T13:02:11.965Z,9.52
2022-11-29T13:04:59.796Z,9.43
2022-11-29T13:07:56.458Z,9.35
2022-11-29T13:10:28.881Z,9.29
2022-11-29T13:13:04.266Z,9.24
2022-11-29T13:15:43.293Z,9.19
2022-11-29T13:18:41.206Z,9.18
2022-11-29T13:21:18.304Z,9.19
2022-11-29T13:24:09.633Z,9.19
2022-11-29T13:26:41.758Z,9.18
2022-11-29T13:29:15.281Z,9.17
2022-11-29T13:31:44.529Z,9.13
2022-11-29T13:34:26.095Z,9.06
2022-11-29T13:37:15.163Z,8.97
2022-11-29T13:40:17.478Z,8.91
2022-11-29T13:42:53.502Z,8.86
2022-11-29T13:45:30.308Z,8.80
2022-11-29T13:47:59.877Z,8.78
2022-11-29T13:50:42.145Z,8.76
2022-11-29T13:53:20.073Z,8.74
2022-11-29T13:56:00.333Z,8.71
2022-11-29T13:58:28.009Z,8.69
2022-11-29T14:01:01.490Z,8.66
2022-11-29T14:03:32.851Z,8.61
2022-11-29T14:06:12.676Z,8.57
2022-11-29T14:09:19.806Z,8.55
2022-11-29T14:11:54.412Z,8.55
2022-11-29T14:15:11.868Z,8.52
2022-11-29T14:17:45.482Z,8.49
2022-11-29T14:20:22.693Z,8.46
2022-11-29T14:23:05.602Z,8.44
2022-11-29T14:26:02.521Z,8.41
2022-11-29T14:28:31.848Z,8.38
2022-11-29T14:31:04.285Z,8.36
2022-11-29T14:33:35.620Z,8.36
2022-11-29T14:36:17.659Z,8.36
2022-11-29T14:39:10.399Z,8.63
2022-11-29T14:41:55.719Z,10.33
2022-11-29T14:44:26.143Z,11.61
2022-11-29T14:47:02.947Z,11.23
2022-11-29T14:49:37.959Z,10.61
2022-11-29T14:52:14.910Z,10.18
2022-11-29T14:54:54.799Z,9.84
2022-11-29T14:57:48.250Z,9.58
2022-11-29T15:00:21.957Z,9.36
2022-11-29T15:02:55.445Z,9.18
2022-11-29T15:05:33.785Z,9.00
2022-11-29T15:08:09.695Z,8.81
2022-11-29T15:10:41.818Z,8.64
2022-11-29T15:13:14.346Z,8.51
2022-11-29T15:15:45.425Z,8.68
2022-11-29T15:18:30.075Z,10.03
2022-11-29T15:21:20.934Z,11.60
2022-11-29T15:23:58.672Z,12.17
2022-11-29T15:26:26.488Z,11.36
2022-11-29T15:29:12.675Z,10.57
2022-11-29T15:31:42.086Z,9.91
2022-11-29T15:34:29.621Z,9.48
2022-11-29T15:36:58.165Z,9.12
2022-11-29T15:39:30.003Z,8.87
2022-11-29T15:42:10.988Z,8.64
2022-11-29T15:44:45.750Z,8.42
2022-11-29T15:47:21.880Z,8.23
2022-11-29T15:49:50.823Z,8.10
2022-11-29T15:52:33.849Z,8.29
2022-11-29T15:55:04.156Z,9.81
2022-11-29T15:57:43.334Z,11.16
2022-11-29T16:00:23.854Z,11.79
2022-11-29T16:02:57.449Z,11.10
2022-11-29T16:05:30.369Z,10.39
2022-11-29T16:08:04.511Z,9.90
2022-11-29T16:10:54.868Z,9.52
2022-11-29T16:13:25.539Z,9.21
2022-11-29T16:16:14.465Z,8.97
2022-11-29T16:18:44.898Z,8.67
2022-11-29T16:21:27.863Z,8.46
2022-11-29T16:23:56.834Z,8.28
2022-11-29T16:26:47.706Z,8.11
2022-11-29T16:29:30.888Z,7.96
2022-11-29T16:31:58.689Z,7.83
2022-11-29T16:34:33.998Z,7.72
2022-11-29T16:37:07.795Z,7.89
2022-11-29T16:39:37.981Z,9.32
2022-11-29T16:42:07.856Z,10.60
2022-11-29T16:44:41.879Z,10.46
2022-11-29T16:47:21.512Z,9.74
2022-11-29T16:50:01.677Z,9.15
2022-11-29T16:52:34.119Z,8.73
2022-11-29T16:55:01.849Z,8.42
2022-11-29T16:57:30.084Z,8.21
2022-11-29T16:59:58.012Z,8.02
2022-11-29T17:02:28.744Z,7.87
2022-11-29T17:04:58.084Z,7.75
2022-11-29T17:07:30.036Z,7.64
2022-11-29T17:09:58.278Z,7.80
2022-11-29T17:12:26.018Z,9.12
2022-11-29T17:14:54.007Z,10.48
2022-11-29T17:17:21.755Z,11.16
2022-11-29T17:19:49.515Z,10.51
2022-11-29T17:22:17.286Z,9.73
2022-11-29T17:24:48.335Z,9.14
2022-11-29T17:27:18.717Z,8.70
2022-11-29T17:29:46.539Z,8.40
2022-11-29T17:32:14.247Z,8.17
2022-11-29T17:34:41.944Z,7.97
2022-11-29T17:37:09.691Z,7.79
2022-11-29T17:39:37.520Z,7.65
2022-11-29T17:42:05.447Z,7.49
2022-11-29T17:44:34.383Z,7.63
2022-11-29T17:47:02.530Z,9.09
2022-11-29T17:49:30.525Z,10.68
2022-11-29T17:51:59.461Z,11.44
2022-11-29T17:54:27.652Z,10.78
2022-11-29T17:56:55.573Z,9.95
2022-11-29T17:59:23.326Z,9.28
2022-11-29T18:01:51.119Z,8.74
2022-11-29T18:04:18.971Z,8.36
2022-11-29T18:06:50.233Z,8.05
2022-11-29T18:09:19.606Z,7.80
2022-11-29T18:11:50.163Z,7.58
2022-11-29T18:14:20.858Z,7.39
2022-11-29T18:16:49.369Z,7.65
2022-11-29T18:19:20.184Z,9.13
2022-11-29T18:21:49.098Z,10.50
2022-11-29T18:24:17.630Z,11.20
2022-11-29T18:26:45.685Z,10.53
2022-11-29T18:29:13.689Z,9.65
2022-11-29T18:31:43.472Z,8.97
2022-11-29T18:34:13.141Z,8.44
2022-11-29T18:36:46.907Z,8.04
2022-11-29T18:39:16.764Z,7.70
2022-11-29T18:41:48.986Z,7.40
2022-11-29T18:44:20.278Z,7.15
2022-11-29T18:46:48.045Z,7.29
2022-11-29T18:49:17.326Z,8.67
2022-11-29T18:51:46.801Z,9.93
2022-11-29T18:54:16.792Z,10.11
2022-11-29T18:56:45.601Z,9.37
2022-11-29T18:59:17.207Z,8.66
2022-11-29T19:01:47.560Z,8.10
2022-11-29T19:04:18.760Z,7.68
2022-11-29T19:06:46.947Z,7.30
2022-11-29T19:09:21.188Z,7.00
2022-11-29T19:11:50.124Z,6.74
2022-11-29T19:14:18.699Z,6.80
2022-11-29T19:16:48.667Z,8.15
2022-11-29T19:19:18.693Z,9.65
2022-11-29T19:21:47.335Z,10.37
2022-11-29T19:24:17.931Z,9.66
2022-11-29T19:26:47.180Z,8.81
2022-11-29T19:29:16.026Z,8.21
2022-11-29T19:31:44.772Z,7.81
2022-11-29T19:34:12.770Z,7.49
2022-11-29T19:36:44.660Z,7.20
2022-11-29T19:39:17.793Z,6.97
2022-11-29T19:41:47.350Z,6.78
2022-11-29T19:44:15.471Z,6.59
2022-11-29T19:46:47.002Z,6.67
2022-11-29T19:49:14.936Z,7.99
2022-11-29T19:51:42.954Z,9.41
2022-11-29T19:54:12.091Z,10.01
2022-11-29T19:56:40.254Z,9.32
2022-11-29T19:59:08.782Z,8.43
2022-11-29T20:01:41.830Z,7.76
2022-11-29T20:04:11.892Z,7.22
2022-11-29T20:06:40.365Z,6.73
2022-11-29T20:09:08.709Z,6.33
2022-11-29T20:11:36.614Z,6.05
2022-11-29T20:14:05.939Z,6.10
2022-11-29T20:16:34.331Z,7.36
2022-11-29T20:19:02.143Z,8.73
2022-11-29T20:21:32.101Z,9.48
2022-11-29T20:24:03.552Z,8.84
2022-11-29T20:26:33.752Z,7.90
2022-11-29T20:29:02.375Z,7.18
2022-11-29T20:31:32.164Z,6.60
2022-11-29T20:34:00.635Z,6.13
2022-11-29T20:36:43.925Z,5.76
2022-11-29T20:39:30.217Z,5.87
2022-11-29T20:42:29.551Z,7.42
2022-11-29T20:45:06.536Z,8.87
2022-11-29T20:47:47.830Z,8.90
2022-11-29T20:50:23.585Z,7.88
2022-11-29T20:53:09.443Z,7.04
2022-11-29T20:55:42.466Z,6.36
2022-11-29T20:58:14.355Z,5.88
2022-11-29T21:00:42.208Z,5.58
2022-11-29T21:03:15.980Z,5.33
2022-11-29T21:05:44.464Z,5.43
2022-11-29T21:08:13.250Z,6.86
2022-11-29T21:10:41.150Z,8.26
2022-11-29T21:13:11.010Z,8.96
2022-11-29T21:15:41.910Z,8.23
2022-11-29T21:18:30.867Z,7.32
2022-11-29T21:21:22.954Z,6.51
2022-11-29T21:24:04.010Z,5.89
2022-11-29T21:26:41.770Z,5.47
2022-11-29T21:29:10.008Z,5.17
2022-11-29T21:31:38.140Z,5.27
2022-11-29T21:34:05.988Z,6.69
2022-11-29T21:36:33.969Z,8.02
2022-11-29T21:39:05.185Z,8.01
2022-11-29T21:41:33.989Z,7.11
2022-11-29T21:44:07.285Z,6.32
2022-11-29T21:46:35.917Z,5.74
2022-11-29T21:49:04.540Z,5.31
2022-11-29T21:51:32.270Z,5.04
2022-11-29T21:54:01.399Z,6.04
2022-11-29T21:56:29.165Z,7.59
2022-11-29T21:58:56.877Z,8.30
2022-11-29T22:01:24.893Z,7.58
2022-11-29T22:03:54.177Z,6.67
2022-11-29T22:06:24.448Z,5.99
2022-11-29T22:08:52.689Z,5.50
2022-11-29T22:11:30.988Z,5.11
2022-11-29T22:14:19.354Z,5.17
2022-11-29T22:16:50.613Z,6.80
2022-11-29T22:19:39.657Z,8.11
2022-11-29T22:22:09.730Z,8.13
2022-11-29T22:24:38.364Z,7.17
2022-11-29T22:27:06.655Z,6.32
2022-11-29T22:29:34.581Z,5.67
2022-11-29T22:32:02.773Z,5.14
2022-11-29T22:34:30.639Z,5.05
2022-11-29T22:36:58.528Z,6.44
2022-11-29T22:39:26.736Z,7.98
2022-11-29T22:41:55.333Z,8.27
2022-11-29T22:44:24.109Z,7.28
2022-11-29T22:46:52.221Z,6.36
2022-11-29T22:49:19.999Z,5.66
2022-11-29T22:51:47.843Z,5.14
2022-11-29T22:54:16.503Z,5.13
2022-11-29T22:56:45.885Z,6.53
2022-11-29T22:59:13.805Z,7.87
2022-11-29T23:01:41.940Z,8.34
2022-11-29T23:04:11.051Z,7.54
2022-11-29T23:06:41.908Z,6.57
2022-11-29T23:09:16.452Z,5.79
2022-11-29T23:11:46.103Z,5.22
2022-11-29T23:14:13.807Z,4.76
2022-11-29T23:16:41.661Z,4.70
2022-11-29T23:19:09.681Z,6.00
2022-11-29T23:21:39.862Z,7.42
2022-11-29T23:24:07.696Z,8.20
2022-11-29T23:26:39.596Z,7.51
2022-11-29T23:29:12.670Z,6.58
2022-11-29T23:31:40.778Z,5.88
2022-11-29T23:34:08.977Z,5.38
2022-11-29T23:36:36.744Z,4.98
2022-11-29T23:39:06.736Z,4.74
2022-11-29T23:41:36.046Z,5.52
2022-11-29T23:44:05.021Z,6.85
2022-11-29T23:46:32.824Z,7.88
2022-11-29T23:49:00.799Z,7.69
2022-11-29T23:51:28.530Z,6.80
2022-11-29T23:53:56.356Z,6.04
2022-11-29T23:56:24.117Z,5.49
2022-11-29T23:58:51.844Z,5.03
